createdAt,value
2022-11-20T00:00:54.928Z,16.88
2022-11-20T00:03:23.897Z,15.93
2022-11-20T00:05:51.708Z,15.48
2022-11-20T00:08:19.295Z,15.70
2022-11-20T00:10:47.161Z,14.95
2022-11-20T00:13:14.736Z,15.77
2022-11-20T00:15:42.380Z,15.30
2022-11-20T00:18:11.374Z,15.23
2022-11-20T00:20:39.372Z,16.15
2022-11-20T00:23:07.944Z,16.48
2022-11-20T00:25:36.250Z,15.75
2022-11-20T00:28:03.943Z,15.60
2022-11-20T00:30:31.578Z,16.73
2022-11-20T00:32:59.539Z,17.58
2022-11-20T00:35:28.526Z,18.08
2022-11-20T00:37:56.163Z,17.52
2022-11-20T00:40:23.760Z,17.57
2022-11-20T00:42:51.375Z,17.35
2022-11-20T00:45:18.974Z,18.08
2022-11-20T00:47:46.632Z,17.87
2022-11-20T00:50:15.383Z,19.30
2022-11-20T00:52:44.541Z,21.35
2022-11-20T00:55:12.173Z,19.50
2022-11-20T00:57:39.771Z,17.25
2022-11-20T01:00:09.064Z,17.83
2022-11-20T01:02:36.886Z,16.40
2022-11-20T01:05:04.789Z,15.90
2022-11-20T01:07:33.872Z,16.98
2022-11-20T01:10:02.850Z,15.68
2022-11-20T01:12:30.447Z,15.93
2022-11-20T01:14:58.150Z,16.35
2022-11-20T01:17:25.780Z,16.35
2022-11-20T01:19:53.391Z,16.00
2022-11-20T01:22:21.088Z,16.58
2022-11-20T01:24:48.980Z,18.10
2022-11-20T01:27:17.952Z,18.90
2022-11-20T01:29:45.563Z,18.48
2022-11-20T01:32:13.313Z,18.15
2022-11-20T01:34:40.979Z,18.55
2022-11-20T01:37:08.698Z,19.63
2022-11-20T01:39:36.325Z,19.33
2022-11-20T01:42:21.288Z,19.95
2022-11-20T01:44:57.071Z,21.20
2022-11-20T01:47:33.660Z,20.48
2022-11-20T01:50:06.203Z,20.37
2022-11-20T01:52:38.800Z,19.88
2022-11-20T01:55:11.602Z,19.27
2022-11-20T01:57:40.516Z,19.63
2022-11-20T02:00:13.196Z,19.45
2022-11-20T02:02:43.009Z,18.90
2022-11-20T02:05:21.412Z,19.40
2022-11-20T02:07:50.388Z,17.80
2022-11-20T02:10:18.155Z,16.98
2022-11-20T02:13:03.627Z,16.75
2022-11-20T02:15:36.235Z,17.55
2022-11-20T02:18:03.912Z,17.75
2022-11-20T02:20:31.678Z,18.25
2022-11-20T02:23:05.731Z,17.92
2022-11-20T02:25:37.107Z,18.55
2022-11-20T02:28:05.632Z,19.27
2022-11-20T02:30:33.475Z,19.50
2022-11-20T02:33:01.272Z,19.13
2022-11-20T02:35:43.967Z,19.90
2022-11-20T02:38:11.954Z,19.87
2022-11-20T02:40:41.042Z,20.93
2022-11-20T02:43:09.181Z,21.35
2022-11-20T02:45:37.127Z,20.63
2022-11-20T02:48:04.960Z,19.95
2022-11-20T02:50:32.587Z,19.75
2022-11-20T02:53:00.195Z,18.80
2022-11-20T02:55:27.854Z,17.88
2022-11-20T02:57:56.828Z,16.77
2022-11-20T03:00:24.733Z,16.08
2022-11-20T03:02:52.518Z,15.52
2022-11-20T03:05:20.221Z,13.98
2022-11-20T03:07:47.871Z,14.05
2022-11-20T03:10:15.555Z,16.85
2022-11-20T03:12:44.246Z,15.45
2022-11-20T03:15:13.459Z,16.27
2022-11-20T03:17:42.248Z,15.00
2022-11-20T03:20:11.032Z,13.65
2022-11-20T03:22:38.663Z,16.65
2022-11-20T03:25:07.038Z,16.85
2022-11-20T03:27:35.916Z,15.95
2022-11-20T03:30:04.113Z,13.07
2022-11-20T03:32:33.299Z,13.07
2022-11-20T03:35:00.967Z,12.60
2022-11-20T03:37:28.592Z,13.00
2022-11-20T03:39:56.452Z,12.52
2022-11-20T03:42:41.748Z,13.13
2022-11-20T03:45:10.447Z,13.70
2022-11-20T03:47:39.475Z,13.55
2022-11-20T03:50:08.030Z,12.57
2022-11-20T03:52:35.679Z,11.65
2022-11-20T03:55:03.407Z,11.57
2022-11-20T03:57:31.255Z,10.40
2022-11-20T03:59:58.898Z,9.98
2022-11-20T04:02:26.756Z,9.70
2022-11-20T04:04:55.883Z,10.07
2022-11-20T04:07:23.570Z,9.00
2022-11-20T04:09:51.297Z,9.20
2022-11-20T04:12:19.121Z,9.02
2022-11-20T04:14:46.787Z,12.38
2022-11-20T04:17:14.413Z,13.73
2022-11-20T04:19:41.988Z,17.17
2022-11-20T04:22:12.551Z,17.85
2022-11-20T04:24:40.217Z,18.02
2022-11-20T04:27:07.885Z,18.00
2022-11-20T04:29:35.586Z,16.80
2022-11-20T04:32:03.278Z,17.40
2022-11-20T04:34:30.905Z,17.13
2022-11-20T04:36:58.663Z,17.48
2022-11-20T04:39:27.704Z,16.97
2022-11-20T04:42:15.349Z,15.77
2022-11-20T04:44:44.068Z,14.45
2022-11-20T04:47:11.639Z,13.02
2022-11-20T04:49:39.958Z,13.23
2022-11-20T04:52:07.795Z,12.90
2022-11-20T04:54:36.808Z,11.80
2022-11-20T04:57:04.408Z,12.25
2022-11-20T04:59:32.199Z,13.00
2022-11-20T05:02:00.204Z,13.45
2022-11-20T05:04:27.875Z,14.52
2022-11-20T05:06:55.683Z,14.23
2022-11-20T05:09:23.621Z,13.87
2022-11-20T05:11:53.042Z,13.95
2022-11-20T05:14:20.697Z,14.15
2022-11-20T05:16:48.356Z,13.90
2022-11-20T05:19:16.225Z,15.40
2022-11-20T05:21:43.899Z,15.50
2022-11-20T05:24:11.765Z,15.07
2022-11-20T05:26:39.383Z,13.85
2022-11-20T05:29:34.440Z,13.35
2022-11-20T05:32:02.128Z,12.45
2022-11-20T05:34:30.284Z,11.85
2022-11-20T05:36:58.046Z,10.50
2022-11-20T05:39:25.733Z,10.38
2022-11-20T05:42:13.551Z,11.77
2022-11-20T05:44:42.536Z,12.82
2022-11-20T05:47:11.292Z,12.70
2022-11-20T05:49:38.887Z,14.37
2022-11-20T05:52:06.521Z,12.50
2022-11-20T05:54:34.459Z,13.10
2022-11-20T05:57:02.769Z,14.30
2022-11-20T05:59:30.403Z,14.35
2022-11-20T06:01:59.471Z,14.85
2022-11-20T06:04:27.309Z,15.23
2022-11-20T06:06:55.060Z,15.57
2022-11-20T06:09:22.884Z,15.48
2022-11-20T06:11:50.764Z,14.52
2022-11-20T06:14:18.441Z,16.20
2022-11-20T06:16:46.060Z,19.38
2022-11-20T06:19:15.917Z,17.20
2022-11-20T06:21:43.810Z,17.83
2022-11-20T06:24:12.088Z,16.95
2022-11-20T06:26:39.731Z,16.20
2022-11-20T06:29:07.447Z,16.50
2022-11-20T06:31:38.539Z,17.65
2022-11-20T06:34:06.916Z,17.65
2022-11-20T06:36:36.147Z,17.57
2022-11-20T06:39:04.382Z,17.80
2022-11-20T06:41:32.088Z,18.08
2022-11-20T06:43:59.692Z,17.05
2022-11-20T06:46:27.440Z,17.10
2022-11-20T06:48:55.689Z,17.90
2022-11-20T06:51:23.371Z,17.13
2022-11-20T06:53:52.378Z,16.35
2022-11-20T06:56:20.028Z,16.70
2022-11-20T06:58:47.732Z,18.00
2022-11-20T07:01:16.687Z,16.88
2022-11-20T07:03:44.502Z,16.80
2022-11-20T07:06:12.830Z,16.63
2022-11-20T07:08:40.512Z,17.65
2022-11-20T07:11:10.226Z,19.58
2022-11-20T07:13:37.812Z,18.50
2022-11-20T07:16:08.550Z,18.23
2022-11-20T07:18:36.246Z,18.70
2022-11-20T07:21:04.774Z,18.75
2022-11-20T07:23:32.612Z,18.95
2022-11-20T07:26:00.337Z,17.50
2022-11-20T07:28:29.330Z,18.17
2022-11-20T07:30:56.913Z,18.50
2022-11-20T07:33:24.503Z,19.17
2022-11-20T07:35:52.180Z,19.20
2022-11-20T07:38:19.872Z,19.08
2022-11-20T07:40:47.510Z,17.90
2022-11-20T07:43:15.120Z,17.65
2022-11-20T07:45:44.115Z,18.48
2022-11-20T07:48:11.735Z,18.05
2022-11-20T07:50:39.344Z,19.33
2022-11-20T07:53:07.710Z,18.77
2022-11-20T07:55:35.393Z,21.77
2022-11-20T07:58:03.069Z,30.13
2022-11-20T08:00:31.439Z,23.00
2022-11-20T08:03:00.447Z,23.27
2022-11-20T08:05:28.209Z,23.02
2022-11-20T08:07:55.881Z,20.90
2022-11-20T08:10:23.647Z,20.90
2022-11-20T08:13:10.703Z,21.02
2022-11-20T08:15:40.374Z,22.92
2022-11-20T08:20:59.276Z,21.98
2022-11-20T08:23:26.888Z,22.17
2022-11-20T08:25:54.571Z,22.08
2022-11-20T08:28:22.589Z,20.80
2022-11-20T08:30:51.628Z,20.88
2022-11-20T08:33:20.697Z,20.08
2022-11-20T08:35:48.282Z,18.48
2022-11-20T08:38:15.956Z,19.23
2022-11-20T08:41:03.636Z,18.92
2022-11-20T08:43:31.425Z,18.63
2022-11-20T08:45:59.254Z,18.70
2022-11-20T08:48:28.216Z,19.45
2022-11-20T08:50:59.262Z,19.38
2022-11-20T08:53:27.434Z,29.00
2022-11-20T08:55:55.517Z,35.00
2022-11-20T08:58:23.164Z,36.53
2022-11-20T09:00:50.898Z,32.28
2022-11-20T09:03:18.564Z,27.92
2022-11-20T09:05:47.519Z,22.10
2022-11-20T09:08:15.215Z,19.73
2022-11-20T09:10:42.907Z,21.38
2022-11-20T09:13:10.671Z,18.40
2022-11-20T09:15:38.289Z,17.63
2022-11-20T09:18:06.428Z,17.98
2022-11-20T09:20:34.261Z,17.58
2022-11-20T09:23:03.487Z,17.50
2022-11-20T09:25:31.282Z,17.02
2022-11-20T09:27:59.593Z,18.38
2022-11-20T09:30:27.671Z,17.95
2022-11-20T09:32:55.641Z,22.30
2022-11-20T09:35:23.304Z,22.15
2022-11-20T09:37:51.211Z,23.33
2022-11-20T09:40:22.866Z,21.55
2022-11-20T09:42:56.334Z,19.75
2022-11-20T09:45:32.318Z,18.90
2022-11-20T09:48:27.867Z,20.40
2022-11-20T09:51:03.219Z,20.85
2022-11-20T09:53:39.650Z,20.70
2022-11-20T09:56:16.950Z,20.30
2022-11-20T09:58:50.897Z,20.20
2022-11-20T10:01:19.981Z,20.33
2022-11-20T10:03:56.165Z,20.17
2022-11-20T10:06:30.761Z,20.10
2022-11-20T10:09:08.240Z,19.55
2022-11-20T10:11:49.692Z,19.77
2022-11-20T10:14:30.329Z,20.10
2022-11-20T10:17:05.619Z,19.17
2022-11-20T10:19:56.979Z,19.93
2022-11-20T10:22:41.425Z,19.90
2022-11-20T10:25:16.228Z,20.33
2022-11-20T10:28:09.823Z,21.48
2022-11-20T10:30:42.308Z,21.20
2022-11-20T10:33:17.999Z,21.75
2022-11-20T10:35:52.088Z,21.65
2022-11-20T10:38:25.783Z,19.92
2022-11-20T10:41:18.429Z,20.52
2022-11-20T10:43:48.883Z,18.80
2022-11-20T10:46:19.483Z,18.60
2022-11-20T10:48:48.555Z,23.63
2022-11-20T10:51:27.209Z,21.50
2022-11-20T10:54:11.865Z,22.25
2022-11-20T10:56:48.361Z,19.42
2022-11-20T10:59:48.964Z,21.42
2022-11-20T11:02:21.298Z,20.35
2022-11-20T11:04:51.220Z,18.55
2022-11-20T11:07:23.479Z,35.50
2022-11-20T11:09:53.983Z,21.77
2022-11-20T11:12:22.836Z,17.27
2022-11-20T11:14:54.216Z,16.60
2022-11-20T11:17:27.815Z,16.42
2022-11-20T11:20:04.044Z,17.05
2022-11-20T11:22:33.524Z,17.08
2022-11-20T11:25:01.951Z,18.60
2022-11-20T11:27:29.739Z,18.75
2022-11-20T11:30:14.822Z,14.48
2022-11-20T11:32:42.443Z,9.18
2022-11-20T11:35:24.791Z,5.60
2022-11-20T11:37:55.109Z,5.80
2022-11-20T11:40:25.409Z,7.47
2022-11-20T11:42:57.598Z,10.93
2022-11-20T11:45:26.257Z,7.03
2022-11-20T11:47:56.420Z,6.67
2022-11-20T11:50:25.819Z,5.10
2022-11-20T11:53:06.478Z,2.70
2022-11-20T11:55:38.451Z,2.00
2022-11-20T11:58:19.091Z,2.03
2022-11-20T12:00:57.471Z,2.10
2022-11-20T12:03:31.302Z,1.92
2022-11-20T12:06:03.475Z,1.87
2022-11-20T12:08:41.446Z,1.77
2022-11-20T12:11:17.755Z,1.73
2022-11-20T12:13:55.541Z,1.70
2022-11-20T12:16:25.053Z,1.80
2022-11-20T12:18:54.665Z,1.60
2022-11-20T12:21:33.584Z,2.78
2022-11-20T12:24:21.508Z,2.10
2022-11-20T12:27:04.914Z,2.05
2022-11-20T12:29:42.996Z,2.00
2022-11-20T12:32:36.609Z,2.20
2022-11-20T12:35:19.722Z,2.13
2022-11-20T12:37:56.013Z,2.40
2022-11-20T12:40:34.463Z,2.22
2022-11-20T12:43:31.746Z,1.95
2022-11-20T12:46:14.158Z,2.90
2022-11-20T12:49:01.359Z,2.40
2022-11-20T12:51:44.240Z,2.05
2022-11-20T12:54:35.808Z,1.90
2022-11-20T12:57:12.959Z,2.65
2022-11-20T12:59:57.656Z,2.10
2022-11-20T13:02:30.131Z,1.83
2022-11-20T13:05:16.429Z,2.33
2022-11-20T13:07:45.318Z,2.20
2022-11-20T13:10:20.175Z,1.80
2022-11-20T13:12:54.127Z,2.13
2022-11-20T13:15:36.408Z,1.90
2022-11-20T13:18:07.394Z,2.08
2022-11-20T13:20:38.208Z,1.83
2022-11-20T13:23:05.879Z,1.60
2022-11-20T13:25:35.138Z,1.50
2022-11-20T13:28:05.874Z,1.60
2022-11-20T13:30:33.948Z,1.48
2022-11-20T13:33:08.356Z,1.70
2022-11-20T13:35:39.254Z,1.45
2022-11-20T13:38:09.696Z,1.60
2022-11-20T13:40:39.991Z,1.30
2022-11-20T13:43:23.708Z,1.10
2022-11-20T13:46:00.020Z,1.10
2022-11-20T13:48:31.126Z,1.40
2022-11-20T13:51:19.188Z,1.60
2022-11-20T13:54:18.975Z,1.40
2022-11-20T13:56:58.596Z,1.45
2022-11-20T13:59:41.807Z,1.30
2022-11-20T14:02:15.063Z,1.25
2022-11-20T14:04:46.876Z,0.93
2022-11-20T14:07:17.617Z,0.90
2022-11-20T14:09:53.412Z,1.20
2022-11-20T14:12:24.345Z,1.20
2022-11-20T14:14:53.663Z,1.25
2022-11-20T14:17:23.579Z,1.00
2022-11-20T14:19:53.236Z,1.38
2022-11-20T14:22:24.644Z,1.47
2022-11-20T14:25:05.436Z,1.85
2022-11-20T14:27:36.139Z,1.65
2022-11-20T14:30:05.160Z,1.60
2022-11-20T14:32:36.652Z,2.83
2022-11-20T14:35:10.962Z,1.63
2022-11-20T14:37:41.211Z,2.42
2022-11-20T14:40:26.507Z,2.00
2022-11-20T14:42:54.731Z,1.90
2022-11-20T14:45:23.753Z,1.35
2022-11-20T14:47:53.669Z,1.95
2022-11-20T14:50:24.635Z,1.70
2022-11-20T14:52:55.352Z,2.08
2022-11-20T14:55:32.464Z,4.50
2022-11-20T14:58:02.384Z,6.88
2022-11-20T15:00:31.368Z,8.87
2022-11-20T15:02:59.035Z,6.37
2022-11-20T15:05:28.623Z,1.60
2022-11-20T15:08:09.158Z,3.75
2022-11-20T15:10:37.941Z,4.47
2022-11-20T15:13:12.661Z,2.45
2022-11-20T15:15:46.231Z,1.40
2022-11-20T15:18:15.963Z,1.50
2022-11-20T15:20:44.430Z,1.90
2022-11-20T15:23:15.138Z,1.20
2022-11-20T15:25:43.884Z,1.20
2022-11-20T15:28:18.916Z,1.75
2022-11-20T15:30:47.372Z,2.50
2022-11-20T15:33:15.102Z,1.60
2022-11-20T15:35:43.032Z,2.28
2022-11-20T15:38:10.985Z,1.60
2022-11-20T15:40:40.165Z,1.20
2022-11-20T15:43:13.262Z,3.38
2022-11-20T15:45:44.743Z,1.70
2022-11-20T15:48:16.228Z,1.48
2022-11-20T15:50:52.860Z,1.08
2022-11-20T15:53:20.502Z,0.93
2022-11-20T15:55:49.928Z,0.93
2022-11-20T15:58:18.179Z,4.30
2022-11-20T16:00:46.597Z,4.38
2022-11-20T16:03:14.536Z,7.80
2022-11-20T16:05:43.234Z,8.63
2022-11-20T16:08:11.987Z,3.17
2022-11-20T16:10:40.141Z,1.52
2022-11-20T16:13:32.343Z,1.30
2022-11-20T16:16:05.269Z,1.60
2022-11-20T16:18:33.295Z,3.13
2022-11-20T16:21:00.935Z,4.70
2022-11-20T16:23:28.592Z,3.30
2022-11-20T16:25:56.358Z,4.32
2022-11-20T16:28:25.367Z,3.53
2022-11-20T16:30:53.063Z,2.60
2022-11-20T16:33:20.686Z,3.97
2022-11-20T16:35:48.366Z,2.97
2022-11-20T16:38:16.010Z,3.42
2022-11-20T16:40:43.665Z,4.18
2022-11-20T16:43:12.896Z,3.75
2022-11-20T16:45:44.837Z,4.13
2022-11-20T16:48:17.363Z,1.90
2022-11-20T16:50:49.997Z,1.90
2022-11-20T16:53:18.024Z,2.03
2022-11-20T16:55:45.672Z,2.38
2022-11-20T16:58:13.373Z,2.30
2022-11-20T17:00:48.377Z,3.95
2022-11-20T17:03:19.327Z,7.22
2022-11-20T17:05:46.999Z,3.00
2022-11-20T17:08:14.604Z,6.15
2022-11-20T17:10:42.543Z,7.10
2022-11-20T17:13:10.145Z,4.88
2022-11-20T17:15:37.822Z,1.93
2022-11-20T17:18:06.953Z,2.58
2022-11-20T17:20:34.562Z,2.07
2022-11-20T17:23:02.226Z,2.60
2022-11-20T17:25:29.824Z,3.08
2022-11-20T17:27:57.420Z,2.10
2022-11-20T17:30:25.796Z,1.52
2022-11-20T17:32:53.433Z,2.47
2022-11-20T17:35:22.360Z,2.40
2022-11-20T17:37:49.960Z,2.38
2022-11-20T17:40:17.723Z,1.50
2022-11-20T17:42:45.332Z,1.40
2022-11-20T17:45:12.958Z,1.80
2022-11-20T17:47:40.754Z,1.52
2022-11-20T17:50:09.347Z,1.70
2022-11-20T17:52:38.283Z,1.70
2022-11-20T17:55:06.712Z,2.33
2022-11-20T17:57:52.014Z,3.60
2022-11-20T18:00:20.488Z,1.70
2022-11-20T18:02:48.202Z,2.30
2022-11-20T18:05:16.188Z,2.08
2022-11-20T18:07:45.244Z,2.10
2022-11-20T18:10:13.199Z,1.97
2022-11-20T18:12:40.835Z,2.20
2022-11-20T18:15:09.076Z,2.90
2022-11-20T18:17:36.752Z,1.20
2022-11-20T18:20:27.752Z,1.92
2022-11-20T18:22:54.008Z,2.37
2022-11-20T18:25:21.784Z,2.37
2022-11-20T18:27:49.496Z,2.00
2022-11-20T18:30:19.164Z,1.60
2022-11-20T18:32:46.798Z,2.00
2022-11-20T18:35:14.434Z,1.97
2022-11-20T18:37:42.078Z,2.20
2022-11-20T18:40:13.356Z,1.65
2022-11-20T18:42:58.802Z,2.05
2022-11-20T18:45:26.504Z,2.00
2022-11-20T18:47:54.167Z,2.33
2022-11-20T18:50:22.129Z,7.95
2022-11-20T18:52:49.809Z,3.33
2022-11-20T18:55:18.879Z,3.10
2022-11-20T18:57:47.595Z,3.40
2022-11-20T19:00:15.687Z,4.47
2022-11-20T19:02:43.691Z,2.63
2022-11-20T19:05:12.398Z,2.67
2022-11-20T19:07:40.600Z,2.95
2022-11-20T19:10:09.017Z,4.00
2022-11-20T19:12:38.357Z,3.30
2022-11-20T19:15:07.353Z,3.55
2022-11-20T19:17:35.203Z,7.43
2022-11-20T19:20:02.913Z,4.03
2022-11-20T19:22:30.581Z,3.58
2022-11-20T19:24:58.177Z,5.28
2022-11-20T19:27:25.801Z,3.08
2022-11-20T19:29:58.721Z,2.55
2022-11-20T19:32:26.406Z,2.00
2022-11-20T19:34:54.175Z,1.90
2022-11-20T19:37:22.218Z,2.50
2022-11-20T19:39:50.087Z,2.53
2022-11-20T19:42:17.822Z,2.70
2022-11-20T19:44:45.538Z,1.17
2022-11-20T19:47:15.094Z,1.40
2022-11-20T19:49:43.108Z,1.38
2022-11-20T19:52:11.002Z,1.10
2022-11-20T19:54:40.101Z,1.67
2022-11-20T19:57:07.796Z,2.63
2022-11-20T19:59:35.565Z,2.10
2022-11-20T20:02:03.874Z,1.10
2022-11-20T20:04:33.479Z,2.75
2022-11-20T20:07:03.866Z,4.03
2022-11-20T20:09:31.939Z,2.58
2022-11-20T20:11:59.664Z,3.67
2022-11-20T20:14:27.541Z,3.72
2022-11-20T20:16:55.349Z,3.63
2022-11-20T20:19:23.338Z,3.95
2022-11-20T20:21:52.657Z,5.53
2022-11-20T20:24:20.842Z,2.28
2022-11-20T20:26:48.570Z,1.93
2022-11-20T20:29:16.273Z,1.23
2022-11-20T20:31:44.033Z,1.40
2022-11-20T20:34:11.844Z,1.27
2022-11-20T20:36:39.596Z,1.50
2022-11-20T20:39:08.711Z,1.50
2022-11-20T20:41:36.500Z,1.40
2022-11-20T20:44:36.021Z,1.60
2022-11-20T20:47:03.769Z,1.95
2022-11-20T20:49:31.487Z,1.77
2022-11-20T20:51:59.269Z,1.40
2022-11-20T20:54:33.125Z,1.20
2022-11-20T20:57:02.108Z,1.50
2022-11-20T20:59:29.733Z,1.20
2022-11-20T21:01:57.420Z,1.33
2022-11-20T21:04:25.338Z,1.67
2022-11-20T21:06:53.015Z,1.60
2022-11-20T21:09:21.583Z,1.45
2022-11-20T21:11:51.057Z,1.30
2022-11-20T21:14:18.718Z,1.70
2022-11-20T21:16:46.550Z,1.60
2022-11-20T21:19:14.205Z,1.60
2022-11-20T21:21:59.308Z,1.65
2022-11-20T21:24:28.200Z,5.93
2022-11-20T21:26:57.892Z,4.13
2022-11-20T21:29:26.774Z,7.13
2022-11-20T21:31:54.883Z,8.25
2022-11-20T21:34:23.718Z,5.57
2022-11-20T21:36:52.028Z,5.45
2022-11-20T21:39:20.375Z,7.30
2022-11-20T21:41:48.086Z,3.60
2022-11-20T21:44:41.632Z,3.88
2022-11-20T21:47:05.016Z,2.20
2022-11-20T21:49:32.602Z,2.97
2022-11-20T21:52:00.306Z,2.90
2022-11-20T21:54:28.005Z,2.80
2022-11-20T21:56:55.671Z,3.50
2022-11-20T21:59:24.873Z,2.70
2022-11-20T22:01:52.559Z,3.30
2022-11-20T22:04:21.369Z,2.97
2022-11-20T22:06:49.309Z,2.90
2022-11-20T22:09:17.049Z,2.60
2022-11-20T22:11:44.667Z,2.63
2022-11-20T22:14:20.677Z,2.57
2022-11-20T22:16:51.149Z,2.60
2022-11-20T22:19:19.996Z,1.85
2022-11-20T22:21:50.506Z,2.58
2022-11-20T22:24:19.814Z,1.90
2022-11-20T22:26:48.041Z,1.75
2022-11-20T22:29:17.524Z,1.90
2022-11-20T22:31:45.442Z,1.98
2022-11-20T22:34:15.200Z,1.80
2022-11-20T22:36:42.843Z,1.80
2022-11-20T22:39:10.682Z,1.80
2022-11-20T22:41:38.345Z,1.85
2022-11-20T22:44:08.368Z,2.10
2022-11-20T22:46:37.916Z,2.00
2022-11-20T22:49:08.306Z,2.10
2022-11-20T22:51:38.760Z,1.90
2022-11-20T22:54:06.855Z,1.70
2022-11-20T22:56:35.204Z,1.80
2022-11-20T22:59:03.049Z,2.10
2022-11-20T23:01:32.571Z,2.03
2022-11-20T23:04:01.850Z,2.10
2022-11-20T23:06:30.877Z,1.98
2022-11-20T23:08:59.812Z,1.80
2022-11-20T23:11:29.799Z,2.20
2022-11-20T23:13:59.344Z,1.95
2022-11-20T23:16:28.659Z,2.20
2022-11-20T23:18:57.740Z,1.70
2022-11-20T23:21:26.015Z,1.90
2022-11-20T23:23:55.754Z,2.15
2022-11-20T23:26:27.477Z,1.80
2022-11-20T23:28:57.566Z,2.28
2022-11-20T23:31:26.643Z,2.40
2022-11-20T23:33:54.912Z,1.60
2022-11-20T23:36:22.727Z,1.60
2022-11-20T23:38:51.387Z,1.70
2022-11-20T23:41:19.297Z,1.80
2022-11-20T23:43:48.339Z,1.70
2022-11-20T23:46:17.017Z,1.73
2022-11-20T23:48:45.825Z,1.40
2022-11-20T23:51:14.487Z,1.40
2022-11-20T23:53:42.473Z,1.50
2022-11-20T23:56:11.675Z,1.67
2022-11-20T23:58:39.859Z,1.60
